Time;durP1;ratioP1;P1;durP2;ratioP2;P2;SDS_P1;SDS_P2;PMS_P1;PMS_P2;Temp;Humidity;BMP_temperature;BMP_pressure;BME280_temperature;BME280_humidity;BME280_pressure;Samples;Min_cycle;Max_cycle;Signal;HPM_P1;HPM_P2
2024/01/26 00:02:01;;;;;;;;;;;;;;;8.85;100.00;102013.84;4980400;28;19968;-74
2024/01/26 00:04:26;;;;;;;;;;;;;;;8.84;100.00;102021.97;4996048;28;20319;-74
2024/01/26 00:06:52;;;;;;;;;;;;;;;8.92;100.00;102013.53;4980470;28;19922;-74
2024/01/26 00:09:17;;;;;;;;;;;;;;;8.95;100.00;102019.56;4971379;28;20449;-74
2024/01/26 00:11:42;;;;;;;;;;;;;;;8.81;100.00;102017.63;4978482;28;20008;-74
2024/01/26 00:14:08;;;;;;;;;;;;;;;8.80;100.00;102023.91;4996027;28;19930;-74
2024/01/26 00:16:33;;;;;;;;;;;;;;;8.77;100.00;102012.50;4978577;28;19922;-73
2024/01/26 00:18:59;;;;;;;;;;;;;;;8.87;100.00;102008.41;4980852;28;20032;-74
2024/01/26 00:21:24;;;;;;;;;;;;;;;8.87;100.00;102004.84;4976065;28;20407;-74
2024/01/26 00:23:49;;;;;;;;;;;;;;;8.88;100.00;102006.59;4973857;28;20372;-74
2024/01/26 00:26:14;;;;;;;;;;;;;;;8.82;100.00;102014.00;4975737;28;20469;-74
2024/01/26 00:28:40;;;;;;;;;;;;;;;8.77;100.00;102025.91;4974555;28;20408;-75
2024/01/26 00:31:06;;;;;;;;;;;;;;;8.86;100.00;102014.72;4972831;28;20151;-74
2024/01/26 00:33:31;;;;;;;;;;;;;;;8.91;100.00;102012.63;4992452;28;20197;-75
2024/01/26 00:35:56;;;;;;;;;;;;;;;8.85;100.00;102012.97;4998115;28;20490;-74
2024/01/26 00:38:22;;;;;;;;;;;;;;;8.90;100.00;102020.78;4993450;28;19991;-74
2024/01/26 00:40:47;;;;;;;;;;;;;;;8.91;100.00;102017.16;4993197;28;19967;-74
2024/01/26 00:43:12;;;;;;;;;;;;;;;8.84;100.00;102017.47;4996938;28;20008;-75
2024/01/26 00:45:37;;;;;;;;;;;;;;;8.83;100.00;102018.41;4995901;28;19928;-74
2024/01/26 00:48:03;;;;;;;;;;;;;;;8.81;100.00;102016.75;4977250;28;19988;-75
2024/01/26 00:50:28;;;;;;;;;;;;;;;8.81;100.00;102012.25;4998919;28;19961;-74
2024/01/26 00:52:53;;;;;;;;;;;;;;;8.82;100.00;102008.63;4990372;28;19931;-74
2024/01/26 00:55:19;;;;;;;;;;;;;;;8.89;100.00;102021.72;4997169;28;19925;-74
2024/01/26 00:57:44;;;;;;;;;;;;;;;8.90;100.00;102021.63;5001997;28;19962;-74
2024/01/26 01:00:10;;;;;;;;;;;;;;;8.94;100.00;102011.63;4980145;28;19929;-74
2024/01/26 01:02:36;;;;;;;;;;;;;;;8.97;100.00;102011.47;4994605;28;20178;-74
2024/01/26 01:05:01;;;;;;;;;;;;;;;8.93;100.00;102017.94;4995424;28;19925;-74
2024/01/26 01:07:27;;;;;;;;;;;;;;;8.82;100.00;102015.81;4976221;28;19934;-73
2024/01/26 01:09:52;;;;;;;;;;;;;;;8.89;100.00;102016.34;4995285;28;20016;-74
2024/01/26 01:12:17;;;;;;;;;;;;;;;8.84;100.00;102016.59;4991117;28;20438;-75
2024/01/26 01:14:44;;;;;;;;;;;;;;;8.94;100.00;102020.53;4987720;28;20427;-73
2024/01/26 01:17:10;;;;;;;;;;;;;;;8.97;100.00;102024.88;5001800;28;20017;-74
2024/01/26 01:19:36;;;;;;;;;;;;;;;8.97;100.00;102027.56;5005969;28;20383;-73
2024/01/26 01:22:01;;;;;;;;;;;;;;;8.92;100.00;102038.47;4989222;28;19922;-74
2024/01/26 01:24:26;;;;;;;;;;;;;;;8.92;100.00;102046.50;4987526;28;19961;-75
2024/01/26 01:26:51;;;;;;;;;;;;;;;8.86;100.00;102049.53;4988318;28;19999;-74
2024/01/26 01:29:17;;;;;;;;;;;;;;;8.85;100.00;102053.16;4989881;28;19925;-74
2024/01/26 01:31:42;;;;;;;;;;;;;;;8.96;100.00;102044.56;4970621;28;19960;-73
2024/01/26 01:34:07;;;;;;;;;;;;;;;8.96;100.00;102050.78;4969417;28;19980;-74
2024/01/26 01:36:32;;;;;;;;;;;;;;;9.05;100.00;102046.75;4986307;28;20727;-75
2024/01/26 01:38:57;;;;;;;;;;;;;;;8.96;100.00;102052.59;4993931;28;19959;-74
2024/01/26 01:41:23;;;;;;;;;;;;;;;8.98;100.00;102042.69;5000896;28;20012;-73
2024/01/26 01:43:57;;;;;;;;;;;;;;;8.99;100.00;102047.94;4977725;28;19971;-73
2024/01/26 01:46:22;;;;;;;;;;;;;;;9.00;100.00;102048.81;4995427;28;20412;-74
2024/01/26 01:48:51;;;;;;;;;;;;;;;9.08;100.00;102037.69;5002096;28;19929;-73
2024/01/26 01:51:16;;;;;;;;;;;;;;;9.00;100.00;102040.78;4972644;28;19922;-74
2024/01/26 01:53:41;;;;;;;;;;;;;;;9.05;100.00;102028.00;4989731;28;19925;-71
2024/01/26 01:56:08;;;;;;;;;;;;;;;9.00;100.00;102032.75;4984088;28;19922;-74
2024/01/26 01:58:33;;;;;;;;;;;;;;;9.09;100.00;102031.41;4991403;28;20310;-74
2024/01/26 02:00:58;;;;;;;;;;;;;;;9.04;100.00;102049.53;4996218;28;20453;-74
2024/01/26 02:03:24;;;;;;;;;;;;;;;9.07;100.00;102049.38;4991728;28;19932;-73
2024/01/26 02:05:49;;;;;;;;;;;;;;;9.05;100.00;102054.78;4994048;28;20008;-73
2024/01/26 02:08:14;;;;;;;;;;;;;;;9.03;100.00;102055.81;4976723;28;19983;-73
2024/01/26 02:10:39;;;;;;;;;;;;;;;8.94;100.00;102052.66;4991304;28;19922;-74
2024/01/26 02:13:04;;;;;;;;;;;;;;;9.08;100.00;102057.31;4994975;28;19925;-72
2024/01/26 02:15:30;;;;;;;;;;;;;;;9.07;100.00;102042.19;4991222;28;20300;-73
2024/01/26 02:17:55;;;;;;;;;;;;;;;9.02;100.00;102054.09;4997213;28;20269;-74
2024/01/26 02:20:20;;;;;;;;;;;;;;;9.03;100.00;102050.47;4978235;28;21003;-72
2024/01/26 02:22:45;;;;;;;;;;;;;;;9.00;100.00;102048.81;4992922;28;19921;-73
2024/01/26 02:25:11;;;;;;;;;;;;;;;9.00;100.00;102056.84;4991424;28;21254;-73
2024/01/26 02:27:36;;;;;;;;;;;;;;;9.04;100.00;102050.38;4975249;28;19984;-73
2024/01/26 02:30:01;;;;;;;;;;;;;;;9.03;100.00;102054.00;4991958;28;20265;-72
2024/01/26 02:32:27;;;;;;;;;;;;;;;8.97;100.00;102043.63;4993611;28;19927;-73
2024/01/26 02:34:52;;;;;;;;;;;;;;;8.98;100.00;102048.03;4969849;28;19932;-73
2024/01/26 02:37:17;;;;;;;;;;;;;;;9.10;100.00;102028.63;4992929;28;19925;-73
2024/01/26 02:39:43;;;;;;;;;;;;;;;9.05;100.00;102030.66;4998134;28;20015;-73
2024/01/26 02:42:08;;;;;;;;;;;;;;;9.14;100.00;102043.59;4993527;28;20763;-73
2024/01/26 02:44:33;;;;;;;;;;;;;;;9.07;100.00;102058.25;4979847;28;20579;-73
2024/01/26 02:46:58;;;;;;;;;;;;;;;9.09;100.00;102044.78;4990049;28;20403;-73
2024/01/26 02:49:24;;;;;;;;;;;;;;;8.99;100.00;102047.09;5007047;28;20649;-73
2024/01/26 02:51:49;;;;;;;;;;;;;;;9.06;100.00;102043.13;4993835;28;19952;-72
2024/01/26 02:54:14;;;;;;;;;;;;;;;8.99;100.00;102044.41;4972777;28;19968;-72
2024/01/26 02:56:39;;;;;;;;;;;;;;;9.15;100.00;102039.97;5006372;28;20028;-73
2024/01/26 02:59:04;;;;;;;;;;;;;;;9.14;100.00;102054.31;5005180;28;19928;-72
2024/01/26 03:01:30;;;;;;;;;;;;;;;9.10;100.00;102052.75;4994999;28;19932;-73
2024/01/26 03:03:55;;;;;;;;;;;;;;;9.07;100.00;102044.84;4976728;28;19922;-72
2024/01/26 03:06:20;;;;;;;;;;;;;;;9.01;100.00;102063.91;4993889;28;19921;-74
2024/01/26 03:08:45;;;;;;;;;;;;;;;8.95;100.00;102037.47;4994613;28;19922;-72
2024/01/26 03:11:11;;;;;;;;;;;;;;;9.00;100.00;102025.56;5009151;28;19957;-74
2024/01/26 03:13:36;;;;;;;;;;;;;;;9.01;100.00;102031.78;4992535;28;19921;-73
2024/01/26 03:16:01;;;;;;;;;;;;;;;9.07;100.00;102023.41;4975412;28;20375;-74
2024/01/26 03:18:27;;;;;;;;;;;;;;;9.05;100.00;102021.78;4980670;28;20474;-75
2024/01/26 03:20:52;;;;;;;;;;;;;;;9.08;100.00;102021.63;4977771;28;20031;-74
2024/01/26 03:23:17;;;;;;;;;;;;;;;8.93;100.00;102013.44;4974441;28;19967;-72
2024/01/26 03:25:43;;;;;;;;;;;;;;;9.21;100.00;102025.38;4990365;28;19955;-75
2024/01/26 03:28:08;;;;;;;;;;;;;;;9.12;100.00;102012.50;4985304;28;19953;-72
2024/01/26 03:30:33;;;;;;;;;;;;;;;9.21;100.00;102025.38;4997707;28;19925;-73
2024/01/26 03:32:59;;;;;;;;;;;;;;;9.21;100.00;102001.25;4987603;28;19932;-74
2024/01/26 03:35:24;;;;;;;;;;;;;;;9.07;100.00;102007.34;4978035;28;19944;-74
2024/01/26 03:37:49;;;;;;;;;;;;;;;9.20;100.00;102012.91;4975831;28;19921;-72
2024/01/26 03:40:14;;;;;;;;;;;;;;;9.28;100.00;102008.03;4999286;28;20318;-73
2024/01/26 03:42:40;;;;;;;;;;;;;;;9.09;100.00;102002.78;4998273;28;19960;-72
2024/01/26 03:45:06;;;;;;;;;;;;;;;9.12;100.00;101999.09;4988778;28;20044;-73
2024/01/26 03:47:31;;;;;;;;;;;;;;;9.09;100.00;102009.97;5015135;28;19921;-73
2024/01/26 03:49:56;;;;;;;;;;;;;;;9.24;100.00;101995.72;5001353;28;19925;-74
2024/01/26 03:52:22;;;;;;;;;;;;;;;9.13;100.00;101982.06;5002459;28;19925;-73
2024/01/26 03:54:47;;;;;;;;;;;;;;;9.25;100.00;101988.56;4989976;28;19921;-74
2024/01/26 03:57:12;;;;;;;;;;;;;;;9.24;100.00;101984.16;5000598;28;20646;-73
2024/01/26 03:59:37;;;;;;;;;;;;;;;9.26;100.00;101995.66;4997193;28;20433;-72
2024/01/26 04:02:03;;;;;;;;;;;;;;;9.20;100.00;101991.47;5005856;28;20382;-73
2024/01/26 04:04:28;;;;;;;;;;;;;;;9.34;100.00;101995.25;4993859;28;19927;-73
2024/01/26 04:06:53;;;;;;;;;;;;;;;9.22;100.00;101976.19;5011730;28;19964;-71
2024/01/26 04:09:18;;;;;;;;;;;;;;;9.20;100.00;102004.88;4995731;28;19926;-72
2024/01/26 04:11:43;;;;;;;;;;;;;;;9.20;100.00;101986.13;4995687;28;19921;-73
2024/01/26 04:14:09;;;;;;;;;;;;;;;9.30;100.00;101982.00;4996884;28;19963;-72
2024/01/26 04:16:34;;;;;;;;;;;;;;;9.29;100.00;101982.97;4990339;28;20013;-72
2024/01/26 04:18:59;;;;;;;;;;;;;;;9.25;100.00;101970.66;4994967;28;20159;-71
2024/01/26 04:21:24;;;;;;;;;;;;;;;9.15;100.00;101964.94;4972547;28;19921;-72
2024/01/26 04:23:49;;;;;;;;;;;;;;;9.47;100.00;101953.41;4996820;28;19922;-73
2024/01/26 04:26:15;;;;;;;;;;;;;;;9.20;100.00;101951.28;4993578;28;19971;-72
2024/01/26 04:28:40;;;;;;;;;;;;;;;9.24;100.00;101952.00;4978233;28;19976;-72
2024/01/26 04:31:05;;;;;;;;;;;;;;;9.37;100.00;101944.16;4995361;28;19925;-73
2024/01/26 04:33:30;;;;;;;;;;;;;;;9.34;100.00;101952.38;4998529;28;19922;-72
2024/01/26 04:35:56;;;;;;;;;;;;;;;9.41;100.00;101946.56;4996509;28;19963;-74
2024/01/26 04:38:21;;;;;;;;;;;;;;;9.35;100.00;101941.53;4992590;28;20010;-73
2024/01/26 04:40:46;;;;;;;;;;;;;;;9.54;100.00;101943.19;4994910;28;20032;-74
2024/01/26 04:43:11;;;;;;;;;;;;;;;9.48;100.00;101932.84;4994685;28;19921;-73
2024/01/26 04:45:37;;;;;;;;;;;;;;;9.56;100.00;101931.47;4983621;28;19917;-72
2024/01/26 04:48:04;;;;;;;;;;;;;;;9.50;100.00;101945.19;5001389;28;19929;-72
2024/01/26 04:50:29;;;;;;;;;;;;;;;9.51;100.00;101932.69;5017812;28;19948;-74
2024/01/26 04:52:54;;;;;;;;;;;;;;;9.51;100.00;101916.59;4982996;28;19921;-72
2024/01/26 04:55:29;;;;;;;;;;;;;;;9.55;100.00;101919.00;5004073;28;20336;-74
2024/01/26 04:57:54;;;;;;;;;;;;;;;9.50;100.00;101928.25;5004855;28;19921;-72
2024/01/26 05:00:19;;;;;;;;;;;;;;;9.55;100.00;101937.75;4991951;28;19968;-72
2024/01/26 05:02:45;;;;;;;;;;;;;;;9.64;100.00;101951.63;5002440;28;19917;-73
2024/01/26 05:05:11;;;;;;;;;;;;;;;9.69;100.00;101942.34;5005088;28;19920;-76
2024/01/26 05:07:37;;;;;;;;;;;;;;;9.63;100.00;101947.22;5000282;28;19921;-78
2024/01/26 05:10:02;;;;;;;;;;;;;;;9.51;100.00;101938.88;4987873;28;20571;-78
2024/01/26 05:12:27;;;;;;;;;;;;;;;9.58;100.00;101942.09;4999720;28;19925;-78
2024/01/26 05:14:52;;;;;;;;;;;;;;;9.59;100.00;101941.13;4984713;28;20459;-77
2024/01/26 05:17:18;;;;;;;;;;;;;;;9.41;100.00;101935.84;5001450;28;20394;-79
2024/01/26 05:19:43;;;;;;;;;;;;;;;9.73;100.00;101929.63;4975646;28;19924;-79
2024/01/26 05:22:08;;;;;;;;;;;;;;;9.54;100.00;101948.56;4982147;28;20299;-78
2024/01/26 05:24:34;;;;;;;;;;;;;;;9.58;100.00;101929.56;5008195;28;20367;-79
2024/01/26 05:26:59;;;;;;;;;;;;;;;9.55;100.00;101920.78;4997059;28;20314;-79
2024/01/26 05:29:24;;;;;;;;;;;;;;;9.59;100.00;101912.50;4997127;28;20530;-77
2024/01/26 05:31:49;;;;;;;;;;;;;;;9.69;100.00;101914.66;4999831;28;20279;-78
2024/01/26 05:34:14;;;;;;;;;;;;;;;9.68;100.00;101903.06;4996684;28;19979;-79
2024/01/26 05:36:41;;;;;;;;;;;;;;;9.54;100.00;101903.88;4997710;28;20015;-79
2024/01/26 05:39:06;;;;;;;;;;;;;;;9.48;100.00;101900.66;4981831;28;20111;-79
2024/01/26 05:41:31;;;;;;;;;;;;;;;9.54;100.00;101908.34;4997300;28;20298;-75
2024/01/26 05:43:57;;;;;;;;;;;;;;;9.63;100.00;101880.16;4997278;28;20322;-80
2024/01/26 05:46:22;;;;;;;;;;;;;;;9.54;100.00;101886.91;4982732;28;20515;-77
2024/01/26 05:48:47;;;;;;;;;;;;;;;9.67;100.00;101885.25;4977556;28;20415;-77
2024/01/26 05:51:12;;;;;;;;;;;;;;;9.33;100.00;101859.50;4993980;28;19922;-78
2024/01/26 05:53:38;;;;;;;;;;;;;;;9.37;100.00;101869.13;4991936;28;20351;-77
2024/01/26 05:56:03;;;;;;;;;;;;;;;9.25;100.00;101866.16;5016409;28;19963;-77
2024/01/26 05:58:29;;;;;;;;;;;;;;;9.27;100.00;101841.97;5013891;28;20013;-75
2024/01/26 06:00:54;;;;;;;;;;;;;;;9.16;100.00;101845.22;4985517;28;20011;-75
2024/01/26 06:03:19;;;;;;;;;;;;;;;9.08;100.00;101847.47;4981201;28;19922;-78
2024/01/26 06:05:44;;;;;;;;;;;;;;;9.07;100.00;101840.41;4980276;28;19921;-75
2024/01/26 06:08:10;;;;;;;;;;;;;;;9.15;100.00;101833.66;4999057;28;19930;-76
2024/01/26 06:10:35;;;;;;;;;;;;;;;9.05;100.00;101829.75;5003578;28;19925;-76
2024/01/26 06:13:00;;;;;;;;;;;;;;;9.00;100.00;101818.44;5013048;28;19917;-76
2024/01/26 06:15:25;;;;;;;;;;;;;;;9.12;100.00;101812.38;4995759;28;19925;-74
2024/01/26 06:17:50;;;;;;;;;;;;;;;8.96;100.00;101817.75;4990503;28;20154;-78
2024/01/26 06:20:16;;;;;;;;;;;;;;;8.93;100.00;101814.38;4987153;28;19929;-79
2024/01/26 06:22:41;;;;;;;;;;;;;;;8.97;100.00;101802.53;4969567;28;19995;-76
2024/01/26 06:25:07;;;;;;;;;;;;;;;8.92;100.00;101788.53;4991647;28;19928;-76
2024/01/26 06:27:32;;;;;;;;;;;;;;;8.85;100.00;101788.88;4991197;28;19963;-75
2024/01/26 06:29:57;;;;;;;;;;;;;;;8.91;100.00;101770.75;4977236;28;19972;-74
2024/01/26 06:32:22;;;;;;;;;;;;;;;8.86;100.00;101754.94;4993588;28;19968;-77
2024/01/26 06:34:48;;;;;;;;;;;;;;;8.84;100.00;101754.16;4994516;28;19928;-76
2024/01/26 06:37:13;;;;;;;;;;;;;;;8.80;100.00;101753.44;4976128;28;19925;-78
2024/01/26 06:39:38;;;;;;;;;;;;;;;8.90;100.00;101737.72;4999519;28;20764;-74
2024/01/26 06:42:04;;;;;;;;;;;;;;;8.90;100.00;101739.56;4979486;28;20291;-75
2024/01/26 06:44:29;;;;;;;;;;;;;;;8.84;100.00;101735.41;4978642;28;19922;-77
2024/01/26 06:46:54;;;;;;;;;;;;;;;8.82;100.00;101719.41;4983227;28;19944;-75
2024/01/26 06:49:19;;;;;;;;;;;;;;;8.92;100.00;101714.41;4980647;28;19948;-75
2024/01/26 06:51:44;;;;;;;;;;;;;;;8.94;100.00;101727.72;4995026;28;20306;-76
2024/01/26 06:54:10;;;;;;;;;;;;;;;8.98;100.00;101721.25;4974251;28;19945;-75
2024/01/26 06:56:35;;;;;;;;;;;;;;;8.92;100.00;101709.03;4978779;28;20477;-75
2024/01/26 06:59:00;;;;;;;;;;;;;;;8.97;100.00;101685.53;4976744;28;20879;-74
2024/01/26 07:01:25;;;;;;;;;;;;;;;9.03;100.00;101684.31;4995947;28;20431;-74
2024/01/26 07:03:51;;;;;;;;;;;;;;;9.05;100.00;101698.47;4990615;28;19929;-74
2024/01/26 07:06:16;;;;;;;;;;;;;;;9.04;100.00;101672.66;4986883;28;20396;-76
2024/01/26 07:08:41;;;;;;;;;;;;;;;8.99;100.00;101666.72;4992846;28;20020;-75
2024/01/26 07:11:06;;;;;;;;;;;;;;;9.04;100.00;101678.00;4995316;28;19921;-75
2024/01/26 07:13:31;;;;;;;;;;;;;;;9.02;100.00;101660.31;4981167;28;19925;-73
2024/01/26 07:15:57;;;;;;;;;;;;;;;9.05;100.00;101654.78;5002499;28;20320;-74
2024/01/26 07:18:22;;;;;;;;;;;;;;;9.06;100.00;101652.00;5004632;28;19928;-73
2024/01/26 07:20:47;;;;;;;;;;;;;;;9.04;100.00;101642.34;4978952;28;19928;-74
2024/01/26 07:23:12;;;;;;;;;;;;;;;9.05;100.00;101636.03;4997823;28;19944;-73
2024/01/26 07:25:37;;;;;;;;;;;;;;;9.07;100.00;101620.72;4982080;28;19921;-72
2024/01/26 07:28:05;;;;;;;;;;;;;;;9.03;100.00;101624.53;4982361;28;20107;-73
2024/01/26 07:30:30;;;;;;;;;;;;;;;9.07;100.00;101618.06;4980347;28;19926;-73
2024/01/26 07:32:55;;;;;;;;;;;;;;;9.14;100.00;101622.06;4979558;28;19928;-73
2024/01/26 07:35:21;;;;;;;;;;;;;;;9.09;100.00;101611.63;4979195;28;19970;-74
2024/01/26 07:37:46;;;;;;;;;;;;;;;9.14;100.00;101609.56;4994024;28;20368;-72
2024/01/26 07:40:11;;;;;;;;;;;;;;;9.11;100.00;101600.84;4982464;28;19928;-74
2024/01/26 07:42:36;;;;;;;;;;;;;;;9.24;100.00;101615.22;4994594;28;19929;-71
2024/01/26 07:45:02;;;;;;;;;;;;;;;9.20;100.00;101619.03;4999742;28;20271;-74
2024/01/26 07:47:27;;;;;;;;;;;;;;;9.22;100.00;101625.16;4997325;28;20486;-74
2024/01/26 07:49:52;;;;;;;;;;;;;;;9.30;100.00;101614.84;4997512;28;19926;-72
2024/01/26 07:52:17;;;;;;;;;;;;;;;9.38;100.00;101622.44;4993474;28;19956;-73
2024/01/26 07:54:42;;;;;;;;;;;;;;;9.41;100.00;101632.09;4995416;28;19963;-74
2024/01/26 07:57:08;;;;;;;;;;;;;;;9.34;100.00;101639.63;4980547;28;19929;-73
2024/01/26 07:59:33;;;;;;;;;;;;;;;9.37;100.00;101644.81;4982871;28;19965;-71
2024/01/26 08:01:58;;;;;;;;;;;;;;;9.45;100.00;101645.22;4996527;28;20044;-71
2024/01/26 08:04:23;;;;;;;;;;;;;;;9.51;100.00;101648.50;4978648;28;19925;-72
2024/01/26 08:06:48;;;;;;;;;;;;;;;9.56;100.00;101660.66;4989020;28;19932;-73
2024/01/26 08:09:14;;;;;;;;;;;;;;;9.59;100.00;101662.28;4992879;28;19928;-73
2024/01/26 08:11:39;;;;;;;;;;;;;;;9.64;100.00;101672.75;5012341;28;20355;-72
2024/01/26 08:14:04;;;;;;;;;;;;;;;9.78;100.00;101658.50;5002348;28;20464;-72
2024/01/26 08:16:30;;;;;;;;;;;;;;;9.75;100.00;101675.63;5002074;28;19974;-73
2024/01/26 08:18:55;;;;;;;;;;;;;;;9.73;100.00;101681.09;5004846;28;19921;-73
2024/01/26 08:21:20;;;;;;;;;;;;;;;9.75;100.00;101675.63;5004840;28;19922;-72
2024/01/26 08:23:46;;;;;;;;;;;;;;;9.83;100.00;101680.50;4996706;28;19921;-73
2024/01/26 08:26:11;;;;;;;;;;;;;;;9.84;100.00;101690.28;4997114;28;20399;-74
2024/01/26 08:28:36;;;;;;;;;;;;;;;9.89;100.00;101689.06;4983881;28;20283;-74
2024/01/26 08:31:02;;;;;;;;;;;;;;;9.88;100.00;101698.06;4998397;28;20316;-72
2024/01/26 08:33:27;;;;;;;;;;;;;;;9.91;100.00;101691.66;5000668;28;20745;-72
2024/01/26 08:35:53;;;;;;;;;;;;;;;9.83;100.00;101693.94;4989580;28;20020;-71
2024/01/26 08:38:18;;;;;;;;;;;;;;;9.82;100.00;101687.72;4994802;28;19917;-72
2024/01/26 08:40:43;;;;;;;;;;;;;;;9.88;100.00;101690.03;4982750;28;19925;-72
2024/01/26 08:43:09;;;;;;;;;;;;;;;9.94;100.00;101694.16;4993691;28;19961;-71
2024/01/26 08:45:34;;;;;;;;;;;;;;;9.98;100.00;101708.22;4997524;28;20361;-72
2024/01/26 08:47:59;;;;;;;;;;;;;;;10.01;100.00;101703.56;4995873;28;19932;-72
2024/01/26 08:50:24;;;;;;;;;;;;;;;10.06;100.00;101701.41;4998529;28;19925;-72
2024/01/26 08:52:50;;;;;;;;;;;;;;;10.16;100.00;101698.19;4995780;28;19956;-71
2024/01/26 08:55:16;;;;;;;;;;;;;;;10.13;100.00;101711.78;4997352;28;20008;-71
2024/01/26 08:57:43;;;;;;;;;;;;;;;10.12;100.00;101718.09;4996945;28;19921;-71
2024/01/26 09:00:08;;;;;;;;;;;;;;;10.16;100.00;101715.16;5002093;28;20369;-72
2024/01/26 09:02:34;;;;;;;;;;;;;;;10.10;100.00;101714.66;5000674;28;19921;-71
2024/01/26 09:04:59;;;;;;;;;;;;;;;10.13;100.00;101727.88;5010992;28;19924;-72
2024/01/26 09:07:24;;;;;;;;;;;;;;;10.14;100.00;101724.25;4989459;28;19945;-72
2024/01/26 09:09:49;;;;;;;;;;;;;;;10.14;100.00;101751.06;5002006;28;20379;-71
2024/01/26 09:12:15;;;;;;;;;;;;;;;10.16;100.00;101750.03;4996995;28;20172;-72
2024/01/26 09:14:40;;;;;;;;;;;;;;;10.09;100.00;101762.09;4998230;28;20011;-71
2024/01/26 09:17:06;;;;;;;;;;;;;;;10.01;100.00;101765.25;5000001;28;19926;-71
2024/01/26 09:19:32;;;;;;;;;;;;;;;9.99;100.00;101788.63;4994296;28;19983;-72
2024/01/26 09:21:57;;;;;;;;;;;;;;;9.97;100.00;101792.34;5009129;28;20543;-72
2024/01/26 09:24:22;;;;;;;;;;;;;;;9.93;100.00;101823.03;5000379;28;20446;-71
2024/01/26 09:26:49;;;;;;;;;;;;;;;9.87;100.00;101829.59;4983079;28;20011;-73
2024/01/26 09:29:15;;;;;;;;;;;;;;;9.83;100.00;101854.84;4991323;28;19921;-71
2024/01/26 09:31:40;;;;;;;;;;;;;;;9.87;100.00;101857.28;4994870;28;20372;-71
2024/01/26 09:34:06;;;;;;;;;;;;;;;9.91;100.00;101884.78;4998626;28;19926;-71
2024/01/26 09:36:31;;;;;;;;;;;;;;;9.89;100.00;101884.91;4991220;28;20040;-71
2024/01/26 09:38:57;;;;;;;;;;;;;;;9.93;100.00;101895.44;4995701;28;20004;-72
2024/01/26 09:41:22;;;;;;;;;;;;;;;9.82;100.00;101909.44;4999677;28;19927;-72
2024/01/26 09:43:47;;;;;;;;;;;;;;;9.79;100.00;101923.91;4985768;28;19921;-71
2024/01/26 09:46:14;;;;;;;;;;;;;;;9.73;100.00;101970.72;4994200;28;19921;-71
2024/01/26 09:48:39;;;;;;;;;;;;;;;9.47;100.00;101974.84;4980980;28;19932;-72
2024/01/26 09:51:04;;;;;;;;;;;;;;;9.20;100.00;101967.38;5008795;28;19921;-72
2024/01/26 09:53:29;;;;;;;;;;;;;;;9.03;100.00;101996.88;4984833;28;19921;-72
2024/01/26 09:55:55;;;;;;;;;;;;;;;9.03;100.00;102015.63;4989010;28;19929;-71
2024/01/26 09:58:20;;;;;;;;;;;;;;;8.96;100.00;102015.94;4993710;28;20023;-71
2024/01/26 10:00:46;;;;;;;;;;;;;;;8.92;100.00;102033.13;5005625;28;20318;-72
2024/01/26 10:03:11;;;;;;;;;;;;;;;8.87;100.00;102045.91;5002098;28;20358;-72
2024/01/26 10:05:36;;;;;;;;;;;;;;;8.88;100.00;102046.75;5001628;28;19968;-72
2024/01/26 10:08:06;;;;;;;;;;;;;;;8.90;100.00;102059.13;4983130;28;20403;-72
2024/01/26 10:10:31;;;;;;;;;;;;;;;8.95;100.00;102072.28;5013888;28;19921;-73
2024/01/26 10:12:57;;;;;;;;;;;;;;;8.94;100.00;102086.63;5003630;28;19921;-73
2024/01/26 10:15:22;;;;;;;;;;;;;;;8.98;100.00;102085.53;4999631;28;19965;-71
2024/01/26 10:17:51;;;;;;;;;;;;;;;8.90;100.00;102091.25;5002609;28;19958;-72
2024/01/26 10:20:18;;;;;;;;;;;;;;;8.69;100.00;102107.47;5000273;28;19921;-72
2024/01/26 10:22:44;;;;;;;;;;;;;;;8.63;100.00;102102.41;4993487;28;19961;-72
2024/01/26 10:25:09;;;;;;;;;;;;;;;8.57;100.00;102129.50;4999697;28;19925;-72
2024/01/26 10:27:34;;;;;;;;;;;;;;;8.52;100.00;102123.50;5002605;28;19932;-72
2024/01/26 10:30:00;;;;;;;;;;;;;;;8.49;100.00;102131.69;4995525;28;20502;-72
2024/01/26 10:32:29;;;;;;;;;;;;;;;8.55;100.00;102132.25;5009627;28;20375;-72
2024/01/26 10:35:01;;;;;;;;;;;;;;;8.53;100.00;102152.88;5004959;28;19921;-72
2024/01/26 10:37:27;;;;;;;;;;;;;;;8.44;100.00;102169.34;5008465;28;19921;-72
2024/01/26 10:39:53;;;;;;;;;;;;;;;8.24;100.00;102155.06;4997629;28;19925;-73
2024/01/26 10:42:18;;;;;;;;;;;;;;;8.14;100.00;102152.91;4995461;28;19965;-71
2024/01/26 10:44:44;;;;;;;;;;;;;;;7.97;100.00;102189.34;5008810;28;19949;-71
2024/01/26 10:47:09;;;;;;;;;;;;;;;7.99;100.00;102194.59;5004141;28;19935;-71
2024/01/26 10:49:34;;;;;;;;;;;;;;;8.19;100.00;102199.06;4997837;28;19929;-72
2024/01/26 10:52:00;;;;;;;;;;;;;;;8.20;100.00;102211.50;5000673;28;19921;-71
2024/01/26 10:54:25;;;;;;;;;;;;;;;8.19;100.00;102215.09;4998270;28;19927;-72
2024/01/26 10:56:50;;;;;;;;;;;;;;;8.71;100.00;102219.88;4995039;28;20415;-71
2024/01/26 10:59:17;;;;;;;;;;;;;;;9.66;100.00;102218.75;5002298;28;19921;-71
2024/01/26 11:01:42;;;;;;;;;;;;;;;9.43;100.00;102236.00;4997832;28;20311;-72
2024/01/26 11:04:08;;;;;;;;;;;;;;;9.95;100.00;102244.97;5008740;28;20363;-72
2024/01/26 11:06:34;;;;;;;;;;;;;;;9.91;100.00;102244.28;5006999;28;19956;-72
2024/01/26 11:09:00;;;;;;;;;;;;;;;10.71;100.00;102244.50;4981009;28;19983;-72
2024/01/26 11:11:30;;;;;;;;;;;;;;;11.30;100.00;102259.09;4997331;28;20004;-72
2024/01/26 11:13:55;;;;;;;;;;;;;;;11.33;100.00;102264.31;4980995;28;19921;-74
2024/01/26 11:16:24;;;;;;;;;;;;;;;10.95;100.00;102268.25;4991076;28;19921;-74
2024/01/26 11:18:53;;;;;;;;;;;;;;;11.39;100.00;102283.63;5006087;28;20016;-72
2024/01/26 11:21:19;;;;;;;;;;;;;;;11.65;100.00;102275.00;4997158;28;19987;-72
2024/01/26 11:23:45;;;;;;;;;;;;;;;12.05;100.00;102280.66;4991207;28;19933;-72
2024/01/26 11:26:14;;;;;;;;;;;;;;;12.28;100.00;102295.41;4972668;28;20001;-72
2024/01/26 11:28:40;;;;;;;;;;;;;;;12.43;100.00;102303.50;5011303;28;19929;-72
2024/01/26 11:31:05;;;;;;;;;;;;;;;12.54;100.00;102306.41;4976893;28;19929;-72
2024/01/26 11:33:34;;;;;;;;;;;;;;;12.08;100.00;102306.53;4995431;28;19959;-72
2024/01/26 11:36:04;;;;;;;;;;;;;;;12.36;100.00;102321.88;4997208;28;19914;-71
2024/01/26 11:38:29;;;;;;;;;;;;;;;12.17;100.00;102314.06;4976582;28;20286;-73
2024/01/26 11:40:55;;;;;;;;;;;;;;;11.55;100.00;102320.38;4995983;28;19918;-72
2024/01/26 11:43:21;;;;;;;;;;;;;;;11.52;100.00;102323.25;4997317;28;20092;-71
2024/01/26 11:45:46;;;;;;;;;;;;;;;11.33;100.00;102337.75;4984153;28;19921;-74
2024/01/26 11:48:12;;;;;;;;;;;;;;;10.72;100.00;102361.75;4996997;28;19964;-73
2024/01/26 11:50:37;;;;;;;;;;;;;;;10.39;100.00;102357.22;4990529;28;19922;-72
2024/01/26 11:53:03;;;;;;;;;;;;;;;9.77;100.00;102351.44;4972904;28;19961;-74
2024/01/26 11:55:29;;;;;;;;;;;;;;;9.84;100.00;102366.25;5007101;28;20390;-72
2024/01/26 11:57:54;;;;;;;;;;;;;;;9.53;100.00;102379.38;4998061;28;19956;-70
2024/01/26 12:00:19;;;;;;;;;;;;;;;9.93;100.00;102355.06;5013755;28;19924;-72
2024/01/26 12:02:44;;;;;;;;;;;;;;;9.67;100.00;102391.22;4985706;28;20485;-73
2024/01/26 12:05:10;;;;;;;;;;;;;;;10.77;100.00;102405.31;5005570;28;20229;-72
2024/01/26 12:07:35;;;;;;;;;;;;;;;11.36;100.00;102394.06;4993531;28;19961;-71
2024/01/26 12:10:00;;;;;;;;;;;;;;;11.30;100.00;102409.66;5003784;28;19991;-72
2024/01/26 12:12:25;;;;;;;;;;;;;;;10.95;100.00;102408.84;4986714;28;20293;-71
2024/01/26 12:14:51;;;;;;;;;;;;;;;9.98;100.00;102412.06;5001720;28;20389;-72
2024/01/26 12:17:16;;;;;;;;;;;;;;;10.18;100.00;102424.47;5002997;28;20384;-70
2024/01/26 12:19:41;;;;;;;;;;;;;;;9.67;100.00;102428.78;4992428;28;19949;-72
2024/01/26 12:22:07;;;;;;;;;;;;;;;10.29;100.00;102431.97;4983984;28;19928;-72
2024/01/26 12:24:35;;;;;;;;;;;;;;;10.13;100.00;102436.38;4993800;28;19962;-71
2024/01/26 12:27:02;;;;;;;;;;;;;;;10.21;100.00;102444.91;4996748;28;19967;-71